Time;durP1;ratioP1;P1;durP2;ratioP2;P2;SDS_P1;SDS_P2;PMS_P1;PMS_P2;Temp;Humidity;BMP_temperature;BMP_pressure;BME280_temperature;BME280_humidity;BME280_pressure;Samples;Min_cycle;Max_cycle;Signal;HPM_P1;HPM_P2
2021/12/26 00:00:17;;;;;;;6.40;2.47;;;-5.60;99.90;;;;;;4993522;28;20041;-71
2021/12/26 00:02:43;;;;;;;4.07;1.90;;;-5.60;99.90;;;;;;4969448;28;20066;-71
2021/12/26 00:05:09;;;;;;;3.95;2.00;;;-5.60;99.90;;;;;;4974707;28;20046;-72
2021/12/26 00:07:36;;;;;;;2.88;1.80;;;-5.60;99.90;;;;;;4968896;28;20039;-71
2021/12/26 00:10:04;;;;;;;4.20;2.33;;;-5.60;99.90;;;;;;4945449;28;20061;-71
2021/12/26 00:12:30;;;;;;;3.72;2.00;;;-5.50;99.90;;;;;;4965759;28;20078;-71
2021/12/26 00:14:56;;;;;;;5.47;1.92;;;-5.60;99.90;;;;;;4962894;28;20134;-71
2021/12/26 00:17:23;;;;;;;4.13;2.35;;;-5.60;99.90;;;;;;4975900;28;20656;-71
2021/12/26 00:19:48;;;;;;;4.28;2.15;;;-5.60;99.90;;;;;;4989847;28;20066;-70
2021/12/26 00:22:15;;;;;;;3.40;2.10;;;-5.60;99.90;;;;;;4978295;28;20030;-71
2021/12/26 00:24:40;;;;;;;2.88;2.03;;;-5.60;99.90;;;;;;4993758;28;20141;-71
2021/12/26 00:27:08;;;;;;;4.03;2.00;;;-5.60;99.90;;;;;;4980169;28;20027;-71
2021/12/26 00:29:33;;;;;;;2.35;1.83;;;-5.60;99.90;;;;;;4975688;28;20088;-71
2021/12/26 00:31:59;;;;;;;3.33;1.85;;;-5.70;99.90;;;;;;4959945;28;20098;-71
2021/12/26 00:34:25;;;;;;;5.10;2.10;;;-5.70;99.90;;;;;;4977255;28;20048;-71
2021/12/26 00:36:51;;;;;;;4.57;1.88;;;-5.60;99.90;;;;;;4976763;28;20053;-71
2021/12/26 00:39:17;;;;;;;5.90;2.03;;;-5.60;99.90;;;;;;4997419;28;20077;-71
2021/12/26 00:41:43;;;;;;;4.65;1.98;;;-5.60;99.90;;;;;;4994933;28;20511;-71
2021/12/26 00:44:09;;;;;;;3.85;1.85;;;-5.60;99.90;;;;;;4996132;28;20103;-71
2021/12/26 00:46:36;;;;;;;2.58;1.85;;;-5.60;99.90;;;;;;4975206;28;20125;-71
2021/12/26 00:49:03;;;;;;;4.22;2.10;;;-5.60;99.90;;;;;;4974135;28;22284;-71
2021/12/26 00:51:29;;;;;;;2.97;1.52;;;-5.60;99.90;;;;;;4994133;28;20068;-71
2021/12/26 00:53:55;;;;;;;3.70;1.63;;;-5.60;99.90;;;;;;4977586;28;20081;-71
2021/12/26 00:56:20;;;;;;;4.13;2.00;;;-5.70;99.90;;;;;;4993261;28;20035;-71
2021/12/26 00:58:47;;;;;;;2.65;1.73;;;-5.70;99.90;;;;;;4994485;28;20038;-71
2021/12/26 01:01:14;;;;;;;6.40;1.98;;;-5.70;99.90;;;;;;4989941;28;20051;-71
2021/12/26 01:03:39;;;;;;;5.53;1.90;;;-5.70;99.90;;;;;;4974881;28;20034;-71
2021/12/26 01:06:06;;;;;;;4.18;1.90;;;-5.60;99.90;;;;;;4993373;28;20113;-71
2021/12/26 01:08:37;;;;;;;2.20;1.70;;;-5.80;99.90;;;;;;4974561;28;20101;-71
2021/12/26 01:11:17;;;;;;;2.33;1.63;;;-5.70;99.90;;;;;;4974600;28;20034;-71
2021/12/26 01:13:45;;;;;;;3.50;1.73;;;-5.80;99.90;;;;;;4992229;28;20101;-71
2021/12/26 01:16:14;;;;;;;5.45;2.10;;;-5.80;99.90;;;;;;4993975;28;20030;-71
2021/12/26 01:18:43;;;;;;;7.80;2.15;;;-5.80;99.90;;;;;;4992248;28;20038;-71
2021/12/26 01:21:24;;;;;;;3.47;1.80;;;-5.80;99.90;;;;;;4993961;28;20050;-71
2021/12/26 01:23:54;;;;;;;3.45;1.70;;;-5.80;99.90;;;;;;4992741;28;20038;-71
2021/12/26 01:26:20;;;;;;;4.43;2.10;;;-5.80;99.90;;;;;;4995177;28;20035;-70
2021/12/26 01:28:47;;;;;;;4.85;1.80;;;-5.80;99.90;;;;;;4976029;28;20133;-71
2021/12/26 01:31:18;;;;;;;4.13;1.92;;;-5.80;99.90;;;;;;4995812;28;20038;-71
2021/12/26 01:33:46;;;;;;;3.85;2.25;;;-5.70;99.90;;;;;;4975152;28;20117;-71
2021/12/26 01:36:12;;;;;;;5.38;1.98;;;-5.80;99.90;;;;;;4979192;28;20066;-71
2021/12/26 01:38:38;;;;;;;5.00;2.08;;;-5.80;99.90;;;;;;4988535;28;20069;-71
2021/12/26 01:41:10;;;;;;;2.72;1.92;;;-5.80;99.90;;;;;;4991827;28;20084;-71
2021/12/26 01:43:38;;;;;;;2.53;1.70;;;-5.70;99.90;;;;;;4992704;28;21059;-71
2021/12/26 01:46:05;;;;;;;2.67;1.90;;;-5.80;99.90;;;;;;4992166;28;20315;-71
2021/12/26 01:48:31;;;;;;;4.47;1.77;;;-5.80;99.90;;;;;;4977077;28;20048;-71
2021/12/26 01:50:57;;;;;;;5.07;1.70;;;-5.80;99.90;;;;;;4975232;28;20038;-70
2021/12/26 01:53:25;;;;;;;3.25;2.10;;;-5.80;99.90;;;;;;4988163;28;20034;-71
2021/12/26 01:55:54;;;;;;;5.43;1.70;;;-5.80;99.90;;;;;;4986456;28;20047;-70
2021/12/26 01:58:23;;;;;;;2.80;1.70;;;-5.80;99.90;;;;;;4984567;28;20085;-70
2021/12/26 02:00:54;;;;;;;2.97;1.63;;;-5.80;99.90;;;;;;4972920;28;20141;-70
2021/12/26 02:03:20;;;;;;;5.55;1.80;;;-5.90;99.90;;;;;;4966272;28;20047;-70
2021/12/26 02:05:46;;;;;;;3.13;1.98;;;-5.90;99.90;;;;;;4969418;28;20034;-70
2021/12/26 02:08:11;;;;;;;4.22;2.03;;;-5.90;99.90;;;;;;4967546;28;20039;-70
2021/12/26 02:10:38;;;;;;;4.00;1.98;;;-5.90;99.90;;;;;;4969155;28;20117;-70
2021/12/26 02:13:04;;;;;;;4.55;2.08;;;-6.00;99.90;;;;;;4965672;28;20134;-70
2021/12/26 02:15:30;;;;;;;2.65;1.80;;;-6.00;99.90;;;;;;4971366;28;20046;-70
2021/12/26 02:17:56;;;;;;;2.45;1.55;;;-6.00;99.90;;;;;;4962809;28;20046;-70
2021/12/26 02:23:09;;;;;;;4.68;1.73;;;-6.00;99.90;;;;;;4972432;28;20057;-70
2021/12/26 02:28:15;;;;;;;2.65;1.80;;;-6.00;99.90;;;;;;4984113;28;20046;-71
2021/12/26 02:30:41;;;;;;;3.58;1.83;;;-6.10;99.90;;;;;;4970134;28;20435;-70
2021/12/26 02:33:11;;;;;;;3.53;1.83;;;-6.10;99.90;;;;;;4964455;28;20043;-71
2021/12/26 02:35:37;;;;;;;2.28;1.77;;;-6.10;99.90;;;;;;4970422;28;20039;-70
2021/12/26 02:38:04;;;;;;;3.08;1.80;;;-6.10;99.90;;;;;;4988329;28;20030;-70
2021/12/26 02:40:30;;;;;;;2.33;1.65;;;-6.10;99.90;;;;;;4969686;28;20049;-70
2021/12/26 02:42:56;;;;;;;4.85;2.00;;;-6.10;99.90;;;;;;4986546;28;20473;-71
2021/12/26 02:45:21;;;;;;;2.92;1.92;;;-6.10;99.90;;;;;;4966303;28;20045;-70
2021/12/26 02:47:49;;;;;;;2.63;1.85;;;-6.10;99.90;;;;;;4967186;28;20046;-70
2021/12/26 02:50:20;;;;;;;3.80;2.05;;;-6.10;99.90;;;;;;4981396;28;20046;-70
2021/12/26 02:52:47;;;;;;;5.05;1.88;;;-6.20;99.90;;;;;;4972315;28;20388;-71
2021/12/26 02:55:15;;;;;;;5.97;1.88;;;-6.20;99.90;;;;;;4959361;28;20043;-71
2021/12/26 02:57:45;;;;;;;3.35;1.83;;;-6.20;99.90;;;;;;4942773;28;20474;-71
2021/12/26 03:00:15;;;;;;;4.20;2.03;;;-6.10;99.90;;;;;;4972949;28;20133;-71
2021/12/26 03:02:47;;;;;;;2.92;1.90;;;-6.20;99.90;;;;;;4990713;28;20049;-71
2021/12/26 03:05:13;;;;;;;3.08;1.80;;;-6.20;99.90;;;;;;4959792;28;20039;-71
2021/12/26 03:07:39;;;;;;;5.13;1.98;;;-6.20;99.90;;;;;;4992030;28;20117;-71
2021/12/26 03:10:07;;;;;;;4.57;2.13;;;-6.20;99.90;;;;;;4971142;28;20077;-71
2021/12/26 03:12:33;;;;;;;3.13;1.90;;;-6.20;99.90;;;;;;4990656;28;20046;-71
2021/12/26 03:15:00;;;;;;;3.00;1.83;;;-6.20;99.90;;;;;;4991972;28;20046;-70
2021/12/26 03:17:26;;;;;;;3.97;1.80;;;-6.20;99.90;;;;;;4972220;28;20129;-70
2021/12/26 03:19:51;;;;;;;3.10;1.77;;;-6.30;99.90;;;;;;4970432;28;20153;-70
2021/12/26 03:22:18;;;;;;;3.92;2.20;;;-6.20;99.90;;;;;;4985211;28;20084;-70
2021/12/26 03:24:44;;;;;;;4.60;1.80;;;-6.20;99.90;;;;;;4986546;28;20042;-70
2021/12/26 03:27:12;;;;;;;3.47;2.00;;;-6.20;99.90;;;;;;4958202;28;20034;-70
2021/12/26 03:29:38;;;;;;;4.38;2.10;;;-6.20;99.90;;;;;;4969492;28;20096;-72
2021/12/26 03:32:05;;;;;;;5.20;2.10;;;-6.20;99.90;;;;;;4968189;28;20141;-71
2021/12/26 03:34:31;;;;;;;4.13;1.80;;;-6.20;99.90;;;;;;4976881;28;20050;-71
2021/12/26 03:36:56;;;;;;;6.18;2.00;;;-6.20;99.90;;;;;;4984634;28;20042;-71
2021/12/26 03:39:23;;;;;;;3.95;2.40;;;-6.20;99.90;;;;;;4966995;28;20581;-71
2021/12/26 03:41:50;;;;;;;4.13;1.90;;;-6.10;99.90;;;;;;4988660;28;20162;-71
2021/12/26 03:44:16;;;;;;;5.22;2.10;;;-6.20;99.90;;;;;;4973182;28;20042;-70
2021/12/26 03:46:43;;;;;;;3.55;2.30;;;-6.10;99.90;;;;;;4971867;28;20042;-70
2021/12/26 03:49:09;;;;;;;3.75;2.30;;;-6.20;99.90;;;;;;4970646;28;20035;-70
2021/12/26 03:51:35;;;;;;;3.53;2.28;;;-6.20;99.90;;;;;;4979377;28;20045;-70
2021/12/26 03:54:04;;;;;;;3.15;2.20;;;-6.20;99.90;;;;;;4971118;28;20054;-70
2021/12/26 03:56:31;;;;;;;2.63;2.10;;;-6.10;99.90;;;;;;4972439;28;20042;-70
2021/12/26 03:58:58;;;;;;;4.47;2.40;;;-6.20;99.90;;;;;;4970590;28;20034;-70
2021/12/26 04:01:25;;;;;;;2.65;1.90;;;-6.20;99.90;;;;;;4966095;28;20060;-70
2021/12/26 04:03:51;;;;;;;2.90;1.92;;;-6.20;99.90;;;;;;4972464;28;20046;-70
2021/12/26 04:06:16;;;;;;;3.92;2.17;;;-6.20;99.90;;;;;;4986767;28;20101;-70
2021/12/26 04:08:42;;;;;;;3.53;2.42;;;-6.30;99.90;;;;;;4987984;28;20553;-70
2021/12/26 04:11:08;;;;;;;5.20;2.10;;;-6.20;99.90;;;;;;4985296;28;20133;-70
2021/12/26 04:13:35;;;;;;;5.53;2.45;;;-6.20;99.90;;;;;;4973861;28;20129;-70
2021/12/26 04:16:01;;;;;;;4.63;2.10;;;-6.20;99.90;;;;;;4975135;28;20470;-70
2021/12/26 04:18:27;;;;;;;4.22;2.20;;;-6.20;99.90;;;;;;4989846;28;20128;-70
2021/12/26 04:20:53;;;;;;;4.63;2.42;;;-6.20;99.90;;;;;;4988379;28;20035;-70
2021/12/26 04:23:18;;;;;;;4.38;2.17;;;-6.20;99.90;;;;;;4989854;28;20049;-70
2021/12/26 04:25:45;;;;;;;3.65;2.30;;;-6.20;99.90;;;;;;4989214;28;20034;-70
2021/12/26 04:28:11;;;;;;;3.38;2.20;;;-6.10;99.90;;;;;;4970920;28;20411;-71
2021/12/26 04:30:37;;;;;;;4.25;2.40;;;-6.10;99.90;;;;;;4989581;28;20033;-71
2021/12/26 04:33:04;;;;;;;4.10;2.42;;;-6.10;99.90;;;;;;4984927;28;20486;-71
2021/12/26 04:35:30;;;;;;;3.70;2.30;;;-6.10;99.90;;;;;;4986235;28;20069;-70
2021/12/26 04:37:56;;;;;;;4.00;2.55;;;-6.10;99.90;;;;;;4972676;28;20069;-70
2021/12/26 04:40:22;;;;;;;3.30;1.90;;;-6.00;99.90;;;;;;4971493;28;20047;-70
2021/12/26 04:42:49;;;;;;;5.03;2.60;;;-6.10;99.90;;;;;;4974906;28;20045;-69
2021/12/26 04:45:15;;;;;;;4.25;2.60;;;-6.10;99.90;;;;;;4983479;28;20511;-69
2021/12/26 04:47:42;;;;;;;5.72;2.45;;;-6.10;99.90;;;;;;4970492;28;20110;-69
2021/12/26 04:50:17;;;;;;;4.57;2.40;;;-6.10;99.90;;;;;;4968388;28;20053;-70
2021/12/26 04:52:44;;;;;;;4.00;2.22;;;-6.10;99.90;;;;;;4980904;28;20042;-70
2021/12/26 04:55:11;;;;;;;4.85;2.50;;;-6.10;99.90;;;;;;4987474;28;20041;-70
2021/12/26 04:57:37;;;;;;;4.68;2.63;;;-6.10;99.90;;;;;;4986637;28;20093;-70
2021/12/26 05:00:08;;;;;;;3.50;2.42;;;-6.10;99.90;;;;;;4986569;28;20042;-70
2021/12/26 05:02:36;;;;;;;4.95;2.72;;;-6.10;99.90;;;;;;4985655;28;20042;-70
2021/12/26 05:05:07;;;;;;;6.18;2.75;;;-6.10;99.90;;;;;;4968025;28;20046;-70
2021/12/26 05:07:34;;;;;;;5.20;2.85;;;-6.10;99.90;;;;;;4968744;28;20518;-70
2021/12/26 05:09:59;;;;;;;4.68;2.85;;;-6.10;99.90;;;;;;4969001;28;20040;-70
2021/12/26 05:12:25;;;;;;;4.95;2.83;;;-6.10;99.90;;;;;;4969643;28;20051;-70
2021/12/26 05:14:52;;;;;;;5.35;3.10;;;-6.10;99.90;;;;;;4966740;28;20146;-70
2021/12/26 05:17:17;;;;;;;4.63;2.85;;;-6.10;99.90;;;;;;4983554;28;20096;-70
2021/12/26 05:19:43;;;;;;;5.32;2.95;;;-6.10;99.90;;;;;;4956551;28;20046;-71
2021/12/26 05:22:09;;;;;;;4.75;2.60;;;-6.10;99.90;;;;;;4984923;28;20042;-71
2021/12/26 05:24:35;;;;;;;6.63;2.78;;;-6.00;99.90;;;;;;4968746;28;20172;-72
2021/12/26 05:27:01;;;;;;;5.80;3.05;;;-6.00;99.90;;;;;;4984045;28;20058;-72
2021/12/26 05:29:27;;;;;;;5.57;3.15;;;-6.00;99.90;;;;;;4986648;28;20049;-72
2021/12/26 05:31:53;;;;;;;5.72;3.05;;;-6.00;99.90;;;;;;4985646;28;20038;-72
2021/12/26 05:34:19;;;;;;;4.78;2.50;;;-6.00;99.90;;;;;;4982873;28;20060;-72
2021/12/26 05:36:45;;;;;;;4.80;2.65;;;-6.00;99.90;;;;;;4965674;28;20038;-70
2021/12/26 05:39:11;;;;;;;4.32;2.70;;;-6.00;99.90;;;;;;4969054;28;20077;-70
2021/12/26 05:41:38;;;;;;;8.52;3.38;;;-6.00;99.90;;;;;;4966429;28;20043;-70
2021/12/26 05:44:05;;;;;;;4.90;3.00;;;-6.00;99.90;;;;;;4982993;28;20046;-70
2021/12/26 05:46:30;;;;;;;5.82;2.97;;;-6.00;99.90;;;;;;4966495;28;20046;-70
2021/12/26 05:48:56;;;;;;;4.97;3.03;;;-5.90;99.90;;;;;;4970108;28;20066;-70
2021/12/26 05:51:22;;;;;;;5.18;2.90;;;-6.00;99.90;;;;;;4968151;28;20132;-70
2021/12/26 05:53:48;;;;;;;6.07;3.05;;;-6.00;99.90;;;;;;4967150;28;20057;-70
2021/12/26 05:56:13;;;;;;;4.35;2.83;;;-6.00;99.90;;;;;;4973437;28;20048;-70
2021/12/26 05:58:39;;;;;;;4.07;2.67;;;-5.90;99.90;;;;;;4969276;28;20069;-70
2021/12/26 06:01:05;;;;;;;3.65;2.47;;;-6.00;99.90;;;;;;4980833;28;20050;-70
2021/12/26 06:03:31;;;;;;;5.45;2.80;;;-6.00;99.90;;;;;;4952679;28;20142;-70
2021/12/26 06:05:57;;;;;;;4.43;2.53;;;-6.00;99.90;;;;;;4983851;28;20038;-70
2021/12/26 06:08:22;;;;;;;3.85;2.72;;;-6.00;99.90;;;;;;4969056;28;20046;-70
2021/12/26 06:10:48;;;;;;;5.88;3.28;;;-6.00;99.90;;;;;;4967807;28;20050;-70
2021/12/26 06:13:14;;;;;;;4.00;2.70;;;-6.00;99.90;;;;;;4971963;28;20230;-70
2021/12/26 06:15:39;;;;;;;7.95;2.65;;;-6.00;99.90;;;;;;4969585;28;20106;-70
2021/12/26 06:18:05;;;;;;;4.53;2.63;;;-6.00;99.90;;;;;;4955070;28;20037;-70
2021/12/26 06:20:31;;;;;;;3.92;2.58;;;-6.00;99.90;;;;;;4968040;28;20064;-70
2021/12/26 06:22:57;;;;;;;4.32;2.80;;;-5.90;99.90;;;;;;4967315;28;20065;-71
2021/12/26 06:25:23;;;;;;;6.30;2.92;;;-5.90;99.90;;;;;;4968913;28;20050;-70
2021/12/26 06:27:48;;;;;;;4.68;2.80;;;-5.90;99.90;;;;;;4968850;28;20057;-70
2021/12/26 06:30:14;;;;;;;5.05;2.90;;;-5.90;99.90;;;;;;4983275;28;20046;-70
2021/12/26 06:32:41;;;;;;;4.80;3.10;;;-5.90;99.90;;;;;;4968925;28;20081;-70
2021/12/26 06:35:08;;;;;;;4.13;2.78;;;-5.90;99.90;;;;;;4968641;28;20097;-71
2021/12/26 06:37:34;;;;;;;5.95;2.92;;;-5.80;99.90;;;;;;4966903;28;22520;-69
2021/12/26 06:40:01;;;;;;;3.72;2.50;;;-5.80;99.90;;;;;;4967944;28;20042;-70
2021/12/26 06:42:29;;;;;;;5.75;2.88;;;-5.80;99.90;;;;;;4966859;28;20044;-70
2021/12/26 06:44:54;;;;;;;8.63;2.78;;;-5.80;99.90;;;;;;4970023;28;20045;-70
2021/12/26 06:47:21;;;;;;;4.30;2.53;;;-5.90;99.90;;;;;;4967074;28;20042;-70
2021/12/26 06:49:46;;;;;;;4.57;2.90;;;-5.80;99.90;;;;;;4984448;28;20052;-70
2021/12/26 06:52:12;;;;;;;5.63;2.92;;;-5.80;99.90;;;;;;4963278;28;20068;-70
2021/12/26 06:54:40;;;;;;;5.78;3.08;;;-5.80;99.90;;;;;;4980937;28;20101;-70
2021/12/26 06:57:06;;;;;;;4.50;2.35;;;-5.80;99.90;;;;;;4970564;28;20049;-70
2021/12/26 06:59:32;;;;;;;5.28;2.80;;;-5.80;99.90;;;;;;4966822;28;20073;-70
2021/12/26 07:01:58;;;;;;;6.05;3.10;;;-5.80;99.90;;;;;;4966596;28;20500;-70
2021/12/26 07:04:23;;;;;;;6.28;2.70;;;-5.80;99.90;;;;;;4966627;28;20557;-70
2021/12/26 07:06:49;;;;;;;6.28;3.10;;;-5.80;99.90;;;;;;4966410;28;20058;-70
2021/12/26 07:09:15;;;;;;;3.75;2.35;;;-5.90;99.90;;;;;;4970044;28;20066;-70
2021/12/26 07:11:41;;;;;;;3.50;2.70;;;-5.80;99.90;;;;;;4970444;28;20089;-70
2021/12/26 07:14:08;;;;;;;3.72;2.63;;;-5.80;99.50;;;;;;4961231;28;20075;-70
2021/12/26 07:16:34;;;;;;;4.32;2.92;;;-5.80;99.80;;;;;;4982894;28;20038;-70
2021/12/26 07:18:59;;;;;;;4.28;2.80;;;-5.80;99.80;;;;;;4967975;28;20097;-71
2021/12/26 07:21:25;;;;;;;4.43;2.90;;;-5.80;99.70;;;;;;4957152;28;20046;-70
2021/12/26 07:23:51;;;;;;;3.45;2.70;;;-5.80;99.90;;;;;;4955875;28;20042;-69
2021/12/26 07:26:17;;;;;;;2.80;2.40;;;-5.80;99.80;;;;;;4973317;28;22421;-69
2021/12/26 07:28:43;;;;;;;5.88;2.90;;;-5.90;99.90;;;;;;4981895;28;20126;-69
2021/12/26 07:31:09;;;;;;;5.68;3.22;;;-5.90;99.90;;;;;;4984158;28;20590;-69
2021/12/26 07:33:35;;;;;;;4.35;2.80;;;-5.80;99.90;;;;;;4966908;28;20125;-69
2021/12/26 07:36:02;;;;;;;5.55;2.35;;;-5.90;99.90;;;;;;4981030;28;20092;-69
2021/12/26 07:38:28;;;;;;;6.47;2.95;;;-5.80;99.90;;;;;;4965313;28;20038;-70
2021/12/26 07:40:54;;;;;;;4.00;2.78;;;-5.80;99.70;;;;;;4966744;28;20031;-70
2021/12/26 07:43:20;;;;;;;4.40;2.90;;;-5.80;99.80;;;;;;4986589;23;20042;-71
2021/12/26 07:45:46;;;;;;;4.95;3.08;;;-5.90;99.90;;;;;;4980350;28;20513;-72
2021/12/26 07:48:12;;;;;;;4.78;2.90;;;-5.90;99.90;;;;;;4986218;28;20085;-72
2021/12/26 07:50:38;;;;;;;4.05;2.67;;;-5.90;99.90;;;;;;4988765;28;20038;-71
2021/12/26 07:53:08;;;;;;;6.80;2.83;;;-5.90;99.90;;;;;;4985350;28;20033;-71
2021/12/26 07:55:34;;;;;;;8.20;3.30;;;-5.90;99.90;;;;;;4978572;28;20092;-71
2021/12/26 07:58:01;;;;;;;3.85;2.80;;;-5.90;99.90;;;;;;4987039;28;20058;-72
2021/12/26 08:00:26;;;;;;;3.70;2.88;;;-5.90;99.90;;;;;;4988830;28;20049;-71
2021/12/26 08:02:52;;;;;;;7.13;3.22;;;-5.90;99.90;;;;;;4985604;28;20038;-72
2021/12/26 08:05:18;;;;;;;5.03;3.53;;;-5.80;99.90;;;;;;4987567;28;20152;-72
2021/12/26 08:07:44;;;;;;;4.90;2.85;;;-5.80;99.90;;;;;;4987014;28;20038;-72
2021/12/26 08:10:10;;;;;;;7.57;3.92;;;-5.80;99.90;;;;;;4983690;28;20042;-72
2021/12/26 08:12:37;;;;;;;4.70;3.35;;;-5.80;99.90;;;;;;4998480;28;20049;-71
2021/12/26 08:15:03;;;;;;;4.35;3.10;;;-5.70;99.90;;;;;;4992951;28;20405;-72
2021/12/26 08:17:30;;;;;;;5.97;3.28;;;-5.70;99.90;;;;;;4991309;28;20124;-71
2021/12/26 08:19:57;;;;;;;5.45;3.38;;;-5.70;99.90;;;;;;5003153;28;20037;-71
2021/12/26 08:22:23;;;;;;;7.43;3.40;;;-5.70;99.90;;;;;;5002355;28;20516;-71
2021/12/26 08:24:48;;;;;;;7.28;3.45;;;-5.60;99.90;;;;;;4996917;28;20482;-71
2021/12/26 08:27:14;;;;;;;5.88;3.25;;;-5.60;99.90;;;;;;4996721;28;20104;-71
2021/12/26 08:29:40;;;;;;;6.32;3.85;;;-5.60;99.90;;;;;;4996550;28;20049;-71
2021/12/26 08:32:10;;;;;;;7.47;3.55;;;-5.50;99.90;;;;;;4996459;28;20038;-71
2021/12/26 08:34:36;;;;;;;5.53;3.53;;;-5.50;99.90;;;;;;4996552;28;20456;-71
2021/12/26 08:37:03;;;;;;;5.97;3.72;;;-5.50;99.70;;;;;;4996203;28;20108;-72
2021/12/26 08:39:32;;;;;;;6.30;3.30;;;-5.40;99.70;;;;;;4995844;28;20054;-71
2021/12/26 08:41:58;;;;;;;5.32;3.40;;;-5.40;99.60;;;;;;4996781;28;20040;-72
2021/12/26 08:44:23;;;;;;;6.22;3.55;;;-5.30;99.70;;;;;;4995989;28;20117;-71
2021/12/26 08:46:50;;;;;;;6.75;3.70;;;-5.30;99.40;;;;;;5013803;28;20041;-71
2021/12/26 08:49:17;;;;;;;7.22;3.75;;;-5.20;99.50;;;;;;4995939;28;20422;-71
2021/12/26 08:51:44;;;;;;;7.50;4.10;;;-5.20;99.70;;;;;;4996274;28;20444;-71
2021/12/26 08:54:10;;;;;;;6.75;3.90;;;-5.20;99.10;;;;;;4995998;28;20050;-71
2021/12/26 08:56:37;;;;;;;7.50;3.90;;;-5.10;99.20;;;;;;4995983;28;20048;-71
2021/12/26 08:59:04;;;;;;;6.22;3.85;;;-5.00;99.10;;;;;;4996330;28;20437;-71
2021/12/26 09:01:30;;;;;;;6.32;3.60;;;-5.00;98.90;;;;;;4995997;28;20517;-71
2021/12/26 09:03:56;;;;;;;8.18;3.92;;;-5.00;99.00;;;;;;4997677;28;20044;-71
2021/12/26 09:06:21;;;;;;;9.55;4.00;;;-4.90;98.80;;;;;;4995569;28;20092;-72
2021/12/26 09:08:47;;;;;;;6.05;3.88;;;-4.80;98.50;;;;;;4994688;28;20132;-72
2021/12/26 09:11:13;;;;;;;5.60;3.80;;;-4.80;98.80;;;;;;4995411;28;20037;-71
2021/12/26 09:13:39;;;;;;;7.53;3.40;;;-4.70;98.20;;;;;;4995785;28;20073;-72
2021/12/26 09:16:05;;;;;;;9.90;4.32;;;-4.60;98.10;;;;;;5008265;28;20100;-71
2021/12/26 09:18:30;;;;;;;7.63;4.03;;;-4.60;97.60;;;;;;4995611;28;20068;-71
2021/12/26 09:20:56;;;;;;;6.93;3.70;;;-4.50;97.60;;;;;;4995516;28;20045;-72
2021/12/26 09:23:22;;;;;;;8.32;3.80;;;-4.40;97.60;;;;;;4979222;28;20070;-71
2021/12/26 09:25:48;;;;;;;6.65;4.00;;;-4.30;97.60;;;;;;4995598;28;20045;-71
2021/12/26 09:28:13;;;;;;;7.35;4.18;;;-4.30;97.10;;;;;;4995468;28;20092;-72
2021/12/26 09:30:41;;;;;;;9.35;4.25;;;-4.20;97.10;;;;;;4994833;28;20038;-73
2021/12/26 09:33:07;;;;;;;5.70;4.20;;;-4.10;96.90;;;;;;5012860;28;20037;-72
2021/12/26 09:35:33;;;;;;;9.15;4.43;;;-4.10;96.60;;;;;;4995058;28;20519;-72
2021/12/26 09:37:59;;;;;;;8.23;4.13;;;-4.00;95.70;;;;;;4995268;28;20050;-71
2021/12/26 09:40:26;;;;;;;6.65;4.18;;;-4.00;95.70;;;;;;4994733;28;20045;-71
2021/12/26 09:42:52;;;;;;;7.45;4.63;;;-3.90;95.70;;;;;;4995036;28;20497;-71
2021/12/26 09:45:18;;;;;;;8.10;3.90;;;-3.80;96.10;;;;;;4995315;28;20116;-71
2021/12/26 09:47:49;;;;;;;6.70;4.00;;;-3.80;96.00;;;;;;4994892;28;20525;-72
2021/12/26 09:50:17;;;;;;;7.60;4.88;;;-3.80;95.80;;;;;;4991946;28;20567;-72
2021/12/26 09:52:44;;;;;;;8.48;4.03;;;-3.70;95.60;;;;;;4995034;28;20045;-72
2021/12/26 09:55:10;;;;;;;6.20;4.22;;;-3.60;95.50;;;;;;4994692;28;20042;-72
2021/12/26 09:57:36;;;;;;;6.45;4.05;;;-3.60;95.50;;;;;;4994737;28;20053;-71
2021/12/26 10:00:27;;;;;;;5.72;4.03;;;-3.50;95.20;;;;;;4994956;28;20073;-71
2021/12/26 10:03:14;;;;;;;9.82;4.85;;;-3.40;94.90;;;;;;4997178;28;20066;-72
2021/12/26 10:06:13;;;;;;;5.82;4.07;;;-3.40;94.70;;;;;;5012929;28;20128;-72
2021/12/26 10:09:03;;;;;;;6.90;4.35;;;-3.30;94.70;;;;;;4994115;28;20077;-73
2021/12/26 10:11:38;;;;;;;6.22;4.35;;;-3.30;94.80;;;;;;4994427;28;20046;-72
2021/12/26 10:14:08;;;;;;;6.13;4.43;;;-3.10;94.60;;;;;;4994862;28;20251;-72
2021/12/26 10:16:44;;;;;;;6.30;4.38;;;-3.10;94.50;;;;;;4994380;28;20042;-72
2021/12/26 10:19:10;;;;;;;8.90;4.65;;;-3.10;94.50;;;;;;4994010;28;20038;-72
2021/12/26 10:21:42;;;;;;;8.52;5.35;;;-3.00;94.70;;;;;;4994206;28;20042;-72
2021/12/26 10:24:11;;;;;;;10.43;4.80;;;-2.90;94.40;;;;;;4999495;28;20087;-72
2021/12/26 10:26:40;;;;;;;7.40;4.85;;;-2.90;94.70;;;;;;4978378;28;20054;-72
2021/12/26 10:29:11;;;;;;;6.43;4.70;;;-2.80;94.70;;;;;;4986722;28;20033;-72
2021/12/26 10:31:41;;;;;;;8.43;5.00;;;-2.70;94.70;;;;;;4976274;28;20050;-72
2021/12/26 10:34:15;;;;;;;8.30;5.25;;;-2.70;94.70;;;;;;4992461;28;20053;-72
2021/12/26 10:36:46;;;;;;;9.52;5.50;;;-2.60;94.70;;;;;;4976043;28;20069;-72
2021/12/26 10:39:14;;;;;;;5.95;4.53;;;-2.60;94.30;;;;;;4992544;28;20037;-72
2021/12/26 10:41:43;;;;;;;6.97;4.78;;;-2.50;94.00;;;;;;4992229;28;20037;-72
2021/12/26 10:44:27;;;;;;;9.02;4.85;;;-2.50;93.80;;;;;;4991808;28;20572;-72
2021/12/26 10:46:57;;;;;;;6.60;4.65;;;-2.40;93.30;;;;;;4993392;28;20044;-72
2021/12/26 10:49:29;;;;;;;8.52;5.30;;;-2.40;93.90;;;;;;4994177;28;20048;-73
2021/12/26 10:51:55;;;;;;;7.85;5.57;;;-2.30;94.10;;;;;;4994149;28;20523;-73
2021/12/26 10:54:25;;;;;;;7.38;4.82;;;-2.30;94.40;;;;;;4994608;28;20049;-73
2021/12/26 10:57:06;;;;;;;7.25;4.90;;;-2.30;94.50;;;;;;4983470;28;20038;-73
2021/12/26 10:59:32;;;;;;;7.03;5.03;;;-2.20;94.20;;;;;;4994279;28;20581;-73
2021/12/26 11:01:57;;;;;;;8.20;5.40;;;-2.20;93.60;;;;;;4994037;28;20121;-73
2021/12/26 11:04:26;;;;;;;7.53;5.20;;;-2.20;93.70;;;;;;4978656;28;20080;-73
2021/12/26 11:07:09;;;;;;;8.30;5.28;;;-2.10;93.90;;;;;;4993995;28;20486;-73
2021/12/26 11:09:36;;;;;;;8.05;5.20;;;-2.10;94.30;;;;;;4994252;28;20096;-73
2021/12/26 11:12:07;;;;;;;10.13;5.40;;;-2.00;94.50;;;;;;4994402;28;20038;-73
2021/12/26 11:14:57;;;;;;;7.95;5.03;;;-1.90;94.10;;;;;;4996408;28;20493;-73
2021/12/26 11:17:34;;;;;;;9.25;5.60;;;-1.90;94.00;;;;;;4966990;28;20397;-73
2021/12/26 11:20:00;;;;;;;8.57;5.50;;;-1.80;93.40;;;;;;4994051;28;20046;-72
2021/12/26 11:22:26;;;;;;;8.85;5.35;;;-1.80;93.20;;;;;;4993951;28;20077;-73
2021/12/26 11:24:53;;;;;;;8.48;5.00;;;-1.70;93.70;;;;;;4977876;28;20041;-73
2021/12/26 11:27:23;;;;;;;7.78;5.25;;;-1.60;94.10;;;;;;4993464;28;20077;-72
2021/12/26 11:29:49;;;;;;;9.80;5.55;;;-1.50;94.60;;;;;;4977132;28;20026;-72
2021/12/26 11:32:24;;;;;;;8.50;5.47;;;-1.40;94.50;;;;;;4994270;28;20125;-72
2021/12/26 11:34:50;;;;;;;7.50;5.63;;;-1.30;94.30;;;;;;4997533;28;20096;-72
2021/12/26 11:37:16;;;;;;;7.35;4.78;;;-1.20;93.40;;;;;;4997462;28;20493;-72
2021/12/26 11:39:44;;;;;;;7.38;5.45;;;-1.20;93.30;;;;;;4997081;28;20042;-72
2021/12/26 11:42:36;;;;;;;10.77;5.63;;;-1.10;93.50;;;;;;4997435;28;20138;-72
2021/12/26 11:45:19;;;;;;;8.18;5.05;;;-1.00;93.70;;;;;;4997364;28;20046;-72
2021/12/26 11:48:42;;;;;;;7.05;4.95;;;-0.80;93.60;;;;;;5002546;28;20044;-72
2021/12/26 11:51:19;;;;;;;7.85;4.80;;;-0.60;93.10;;;;;;4968054;28;20049;-72
2021/12/26 11:54:00;;;;;;;7.53;5.25;;;-0.50;92.50;;;;;;4997025;28;20084;-72
2021/12/26 11:56:44;;;;;;;7.38;5.40;;;-0.40;92.30;;;;;;4978046;28;20034;-73
2021/12/26 11:59:47;;;;;;;10.15;5.47;;;-0.30;92.10;;;;;;4994503;28;20398;-73
2021/12/26 12:02:33;;;;;;;9.02;5.95;;;-0.30;92.10;;;;;;4979704;28;20120;-73
2021/12/26 12:05:09;;;;;;;7.82;5.35;;;-0.20;92.70;;;;;;4997179;28;20459;-73
2021/12/26 12:07:45;;;;;;;9.77;5.78;;;0.00;92.10;;;;;;4996762;28;20042;-73
2021/12/26 12:10:41;;;;;;;8.77;5.47;;;0.00;91.00;;;;;;4996438;28;20556;-73
2021/12/26 12:13:27;;;;;;;8.05;5.55;;;0.10;91.50;;;;;;4996827;28;20645;-73
2021/12/26 12:16:08;;;;;;;8.20;5.80;;;0.30;91.70;;;;;;4971992;28;20506;-73
2021/12/26 12:18:37;;;;;;;6.70;5.28;;;0.40;91.70;;;;;;4996354;28;20497;-73
2021/12/26 12:21:11;;;;;;;8.25;5.95;;;0.50;90.90;;;;;;4997002;28;20553;-73
2021/12/26 12:23:56;;;;;;;7.65;5.32;;;0.70;91.40;;;;;;4996460;28;20053;-73
2021/12/26 12:26:39;;;;;;;7.18;5.00;;;0.90;92.10;;;;;;4980603;28;20046;-73
2021/12/26 12:29:04;;;;;;;6.20;4.55;;;1.10;91.10;;;;;;4996504;28;20520;-73
2021/12/26 12:31:30;;;;;;;8.75;5.45;;;1.20;90.30;;;;;;4996406;28;20038;-73
2021/12/26 12:34:22;;;;;;;7.45;5.38;;;1.30;89.80;;;;;;4980142;28;20045;-73
2021/12/26 12:37:00;;;;;;;8.38;4.95;;;1.50;89.80;;;;;;4976531;28;20405;-73
2021/12/26 12:39:25;;;;;;;7.75;5.55;;;1.60;87.30;;;;;;4996415;28;20517;-73
2021/12/26 12:41:53;;;;;;;6.28;5.07;;;1.80;88.70;;;;;;4996585;28;20050;-73
2021/12/26 12:44:35;;;;;;;7.20;5.50;;;1.90;87.20;;;;;;4995210;28;20104;-73
2021/12/26 12:47:08;;;;;;;6.80;4.57;;;2.00;85.60;;;;;;4996299;28;20395;-73
2021/12/26 12:49:41;;;;;;;7.50;5.40;;;2.10;88.70;;;;;;4995939;28;20490;-73
2021/12/26 12:52:07;;;;;;;6.63;5.28;;;2.10;88.30;;;;;;4996188;28;20045;-73
2021/12/26 12:54:34;;;;;;;8.35;5.30;;;2.30;86.40;;;;;;4996193;28;20494;-73
2021/12/26 12:57:06;;;;;;;7.07;5.30;;;2.30;86.00;;;;;;4996623;28;20448;-73
2021/12/26 12:59:42;;;;;;;7.97;5.60;;;2.40;88.10;;;;;;4995533;28;20041;-73